LYBE/BEG METAR and TAF weather

Enter ICAO airport designator
Station Type Date Time Source
LYBE METAR 2019/04/21 00:00 UTC NOAA

LYBE 210000Z 26003KT CAVOK 07/01 Q1025 NOSIG


Station Type Date Time Source
LYBE Decoded METAR 2019/04/21 00:00 UTC NOAA

Beograd / Surcin, Serbia and Montenegro (LYBE) 44-49N 020-17E 99M
Apr 20, 2019 - 08:00 PM EDT / 2019.04.21 0000 UTC
Wind: from the W (260 degrees) at 3 MPH (3 KT):0
Visibility: greater than 7 mile(s):0
Temperature: 44 F (7 C)
Dew Point: 33 F (1 C)
Relative Humidity: 65%
Pressure (altimeter): 30.27 in. Hg (1025 hPa)
ob: LYBE 210000Z 26003KT CAVOK 07/01 Q1025 NOSIG
cycle: 0

Station Type Date Time Source
LYBE TAF 2019/04/20 18:21 UTC NOAA

TAF LYBE 201700Z 2018/2118 06006KT CAVOK TX21/2113Z TN07/2104Z

Example: see airport list